Time;durP1;ratioP1;P1;durP2;ratioP2;P2;SDS_P1;SDS_P2;PMS_P1;PMS_P2;Temp;Humidity;BMP_temperature;BMP_pressure;BME280_temperature;BME280_humidity;BME280_pressure;Samples;Min_cycle;Max_cycle;Signal;HPM_P1;HPM_P2
2022/03/28 00:00:18;;;;;;;4.15;2.60;;;21.60;46.60;;;;;;5030682;28;20039;-73
2022/03/28 00:02:44;;;;;;;5.30;2.97;;;21.50;46.50;;;;;;5012642;28;20436;-72
2022/03/28 00:05:13;;;;;;;4.32;2.70;;;21.50;46.50;;;;;;5030939;28;20029;-72
2022/03/28 00:07:40;;;;;;;4.45;2.63;;;21.60;46.50;;;;;;5013836;28;20029;-73
2022/03/28 00:10:06;;;;;;;4.45;2.58;;;21.50;46.50;;;;;;5031068;28;20069;-72
2022/03/28 00:12:33;;;;;;;4.28;2.53;;;21.60;46.50;;;;;;5030923;28;20441;-72
2022/03/28 00:14:59;;;;;;;4.78;2.95;;;21.60;46.50;;;;;;5030404;28;20498;-73
2022/03/28 00:17:25;;;;;;;4.07;2.35;;;21.60;46.50;;;;;;5030305;28;20033;-72
2022/03/28 00:19:50;;;;;;;3.78;2.55;;;21.60;46.50;;;;;;5012340;28;20033;-72
2022/03/28 00:22:16;;;;;;;4.78;2.85;;;21.60;47.10;;;;;;5029694;28;20022;-71
2022/03/28 00:24:42;;;;;;;5.93;3.00;;;21.60;46.40;;;;;;5031738;28;20026;-73
2022/03/28 00:27:07;;;;;;;5.47;2.75;;;21.60;45.50;;;;;;5044946;28;20020;-73
2022/03/28 00:29:33;;;;;;;4.55;2.70;;;21.60;45.70;;;;;;5029963;28;20033;-72
2022/03/28 00:31:59;;;;;;;3.58;2.35;;;21.60;46.00;;;;;;5045117;28;20039;-73
2022/03/28 00:34:24;;;;;;;4.55;2.47;;;21.60;46.10;;;;;;5040684;28;20037;-73
2022/03/28 00:36:51;;;;;;;9.05;3.78;;;21.60;46.20;;;;;;5033791;28;20041;-73
2022/03/28 00:39:20;;;;;;;4.82;2.70;;;21.60;46.30;;;;;;5021811;28;20408;-73
2022/03/28 00:41:50;;;;;;;4.60;2.40;;;21.60;46.30;;;;;;5045877;28;20468;-73
2022/03/28 00:44:17;;;;;;;5.13;2.63;;;21.50;46.20;;;;;;5029765;28;20519;-73
2022/03/28 00:46:43;;;;;;;3.40;2.53;;;21.50;46.30;;;;;;5020532;28;20025;-73
2022/03/28 00:49:09;;;;;;;5.57;2.83;;;21.60;46.30;;;;;;5051121;28;20104;-73
2022/03/28 00:51:36;;;;;;;5.47;2.78;;;21.50;46.20;;;;;;5041866;28;20430;-73
2022/03/28 00:54:01;;;;;;;4.15;2.63;;;21.50;46.20;;;;;;5043398;28;20073;-73
2022/03/28 00:56:27;;;;;;;4.18;2.65;;;21.50;46.30;;;;;;5049063;28;20028;-73
2022/03/28 00:58:53;;;;;;;3.60;2.30;;;21.50;46.30;;;;;;5037722;28;20026;-73
2022/03/28 01:01:19;;;;;;;5.03;2.67;;;21.50;46.20;;;;;;5049427;28;20025;-73
2022/03/28 01:03:47;;;;;;;4.70;2.40;;;21.60;46.30;;;;;;5042830;28;20020;-73
2022/03/28 01:06:17;;;;;;;4.22;2.45;;;21.50;46.40;;;;;;5041426;28;20079;-73
2022/03/28 01:08:42;;;;;;;4.10;2.50;;;21.60;46.40;;;;;;5050847;28;20036;-73
2022/03/28 01:11:12;;;;;;;4.75;2.53;;;21.60;46.40;;;;;;5020349;28;20580;-73
2022/03/28 01:13:39;;;;;;;;;;;21.50;46.30;;;;;;5012516;28;20111;-73
2022/03/28 01:16:05;;;;;;;4.28;2.35;;;21.60;46.30;;;;;;5045685;28;20002;-72
2022/03/28 01:18:31;;;;;;;4.72;2.80;;;21.60;46.30;;;;;;5021379;28;20032;-73
2022/03/28 01:21:02;;;;;;;4.68;2.47;;;21.50;46.30;;;;;;5050431;28;20022;-73
2022/03/28 01:23:28;;;;;;;3.88;2.17;;;21.60;46.30;;;;;;5040158;28;20021;-73
2022/03/28 01:25:56;;;;;;;4.20;2.53;;;21.60;46.30;;;;;;5044045;28;20532;-73
2022/03/28 01:28:27;;;;;;;5.88;2.70;;;21.60;46.30;;;;;;5029958;28;20025;-73
2022/03/28 01:30:54;;;;;;;3.47;2.53;;;21.60;46.30;;;;;;5019810;28;20100;-73
2022/03/28 01:33:20;;;;;;;4.40;2.38;;;21.60;46.30;;;;;;5030693;28;20032;-73
2022/03/28 01:35:46;;;;;;;6.07;2.55;;;21.60;46.40;;;;;;5042549;28;20112;-73
2022/03/28 01:38:17;;;;;;;4.65;2.78;;;21.60;46.30;;;;;;5022608;28;20116;-73
2022/03/28 01:40:45;;;;;;;3.85;2.30;;;21.60;46.30;;;;;;5032169;28;20021;-73
2022/03/28 01:43:12;;;;;;;3.45;2.22;;;21.60;46.30;;;;;;5020060;28;20029;-73
2022/03/28 01:45:38;;;;;;;4.43;2.15;;;21.50;46.30;;;;;;5045897;28;20041;-73
2022/03/28 01:48:04;;;;;;;4.40;2.45;;;21.60;46.30;;;;;;5044814;28;20035;-73
2022/03/28 01:50:30;;;;;;;4.63;2.53;;;21.50;46.30;;;;;;5021264;28;20033;-72
2022/03/28 01:52:56;;;;;;;3.85;2.35;;;21.50;46.30;;;;;;5000141;28;20083;-73
2022/03/28 01:55:23;;;;;;;5.10;2.90;;;21.50;46.30;;;;;;5036298;28;20017;-73
2022/03/28 01:57:49;;;;;;;3.35;2.50;;;21.50;46.30;;;;;;5048361;28;20052;-73
2022/03/28 02:00:17;;;;;;;6.55;2.58;;;21.50;46.40;;;;;;5024274;28;20033;-73
2022/03/28 02:02:45;;;;;;;3.17;2.20;;;21.50;46.40;;;;;;5022813;28;20082;-73
2022/03/28 02:05:12;;;;;;;4.50;2.35;;;21.60;46.40;;;;;;5049854;28;20032;-73
2022/03/28 02:07:40;;;;;;;4.18;2.30;;;21.50;46.40;;;;;;5020422;28;20029;-73
2022/03/28 02:10:07;;;;;;;4.57;2.30;;;21.60;46.40;;;;;;5049625;28;20033;-73
2022/03/28 02:12:33;;;;;;;3.85;2.45;;;21.50;46.40;;;;;;5035376;28;20029;-73
2022/03/28 02:14:58;;;;;;;3.28;2.17;;;21.60;46.40;;;;;;5038614;28;20041;-72
2022/03/28 02:17:24;;;;;;;4.22;2.10;;;21.50;46.30;;;;;;5034447;28;20106;-73
2022/03/28 02:19:50;;;;;;;4.38;2.30;;;21.50;46.30;;;;;;5018036;28;20509;-73
2022/03/28 02:22:15;;;;;;;4.25;2.60;;;21.60;46.40;;;;;;5034152;28;20389;-72
2022/03/28 02:24:41;;;;;;;3.80;2.20;;;21.50;46.40;;;;;;5035482;28;20088;-73
2022/03/28 02:27:07;;;;;;;3.75;2.10;;;21.60;46.70;;;;;;5040127;28;20020;-72
2022/03/28 02:29:33;;;;;;;4.47;2.42;;;21.70;47.40;;;;;;5041705;28;20029;-73
2022/03/28 02:31:59;;;;;;;8.80;2.78;;;21.70;47.60;;;;;;5047173;28;20029;-72
2022/03/28 02:34:25;;;;;;;15.55;2.92;;;21.80;47.60;;;;;;5018610;28;20029;-73
2022/03/28 02:36:51;;;;;;;7.20;2.28;;;21.80;47.60;;;;;;5042753;28;20040;-73
2022/03/28 02:39:16;;;;;;;6.55;2.40;;;21.80;47.80;;;;;;5043466;28;20488;-73
2022/03/28 02:41:42;;;;;;;8.32;2.00;;;21.80;47.90;;;;;;5041816;28;20757;-73
2022/03/28 02:44:08;;;;;;;10.32;2.33;;;21.80;48.10;;;;;;5048233;28;20108;-72
2022/03/28 02:46:33;;;;;;;5.13;2.47;;;21.80;47.50;;;;;;5052494;28;20028;-73
2022/03/28 02:48:59;;;;;;;7.05;2.60;;;21.80;47.40;;;;;;5034699;28;20040;-72
2022/03/28 02:51:25;;;;;;;6.95;2.42;;;21.80;47.20;;;;;;5052317;28;20114;-73
2022/03/28 02:53:50;;;;;;;7.20;2.53;;;21.70;47.40;;;;;;5051046;28;20112;-73
2022/03/28 02:56:16;;;;;;;6.43;2.30;;;21.70;47.50;;;;;;5052349;28;20420;-72
2022/03/28 02:58:42;;;;;;;7.43;2.30;;;21.70;47.50;;;;;;5034493;28;20388;-72
2022/03/28 03:01:07;;;;;;;6.40;2.60;;;21.70;47.50;;;;;;5052228;28;20056;-73
2022/03/28 03:03:33;;;;;;;7.78;2.47;;;21.70;47.50;;;;;;5052060;28;20087;-72
2022/03/28 03:05:59;;;;;;;5.25;2.40;;;21.70;47.50;;;;;;5052192;28;20020;-73
2022/03/28 03:08:24;;;;;;;8.25;2.70;;;21.70;47.40;;;;;;5052443;28;20355;-72
2022/03/28 03:10:50;;;;;;;4.60;2.30;;;21.70;47.50;;;;;;5052244;28;20359;-72
2022/03/28 03:13:16;;;;;;;7.47;2.50;;;21.70;47.50;;;;;;5051794;28;20041;-72
2022/03/28 03:15:41;;;;;;;5.25;2.30;;;21.70;47.50;;;;;;5034461;28;20033;-73
2022/03/28 03:18:07;;;;;;;6.55;2.35;;;21.70;47.50;;;;;;5052050;28;20036;-73
2022/03/28 03:20:33;;;;;;;6.15;2.47;;;21.60;47.40;;;;;;5051785;28;20025;-72
2022/03/28 03:23:00;;;;;;;6.50;2.28;;;21.60;47.50;;;;;;5051883;28;20017;-73
2022/03/28 03:25:26;;;;;;;5.28;2.40;;;21.60;47.40;;;;;;5051930;28;20036;-73
2022/03/28 03:27:51;;;;;;;7.65;2.70;;;21.70;47.40;;;;;;5034124;28;20486;-73
2022/03/28 03:30:19;;;;;;;6.03;2.40;;;21.60;47.40;;;;;;5051695;28;20021;-73
2022/03/28 03:32:45;;;;;;;6.63;2.13;;;21.60;47.30;;;;;;5033803;28;20025;-73
2022/03/28 03:35:11;;;;;;;5.18;2.35;;;21.60;47.30;;;;;;5051640;28;20029;-73
2022/03/28 03:37:38;;;;;;;5.38;2.67;;;21.60;47.30;;;;;;5051751;28;20040;-73
2022/03/28 03:40:05;;;;;;;4.82;2.40;;;21.60;47.30;;;;;;5051452;28;20025;-73
2022/03/28 03:42:31;;;;;;;5.88;2.40;;;21.70;47.20;;;;;;5033625;28;20049;-73
2022/03/28 03:44:58;;;;;;;4.97;2.60;;;21.70;47.20;;;;;;5051556;28;20029;-73
2022/03/28 03:47:24;;;;;;;4.53;2.30;;;21.60;47.10;;;;;;5051444;28;20113;-73
2022/03/28 03:49:49;;;;;;;7.25;2.35;;;21.70;47.20;;;;;;5051343;28;20052;-73
2022/03/28 03:52:16;;;;;;;6.13;2.30;;;21.70;47.20;;;;;;5051082;28;20037;-73
2022/03/28 03:54:41;;;;;;;4.95;2.50;;;21.60;47.20;;;;;;5051497;28;20031;-73
2022/03/28 03:57:07;;;;;;;2.95;1.98;;;21.60;47.10;;;;;;5051335;28;20105;-73
2022/03/28 03:59:33;;;;;;;6.82;2.55;;;21.60;47.10;;;;;;5051243;28;20025;-73
2022/03/28 04:01:59;;;;;;;5.22;2.33;;;21.60;47.10;;;;;;5032606;28;20025;-73
2022/03/28 04:04:25;;;;;;;5.32;2.28;;;21.60;47.10;;;;;;5051160;28;20485;-73
2022/03/28 04:06:51;;;;;;;4.18;1.92;;;21.60;47.10;;;;;;5051101;28;20025;-73
2022/03/28 04:09:16;;;;;;;5.30;2.45;;;21.60;47.10;;;;;;5051242;28;20025;-73
2022/03/28 04:11:42;;;;;;;7.40;2.40;;;21.60;47.10;;;;;;5051302;28;20029;-73
2022/03/28 04:14:08;;;;;;;4.28;2.15;;;21.60;47.10;;;;;;5050894;28;20087;-73
2022/03/28 04:16:34;;;;;;;3.75;2.10;;;21.60;47.10;;;;;;5033433;28;20036;-73
2022/03/28 04:19:00;;;;;;;5.50;2.45;;;21.60;47.00;;;;;;5050823;28;20021;-73
2022/03/28 04:21:26;;;;;;;4.20;2.30;;;21.60;47.00;;;;;;5051286;28;20025;-73
2022/03/28 04:23:52;;;;;;;5.03;2.20;;;21.60;47.00;;;;;;5032822;28;20021;-72
2022/03/28 04:26:18;;;;;;;6.07;2.60;;;21.60;47.00;;;;;;5051019;28;20072;-73
2022/03/28 04:28:44;;;;;;;4.28;2.20;;;21.60;47.00;;;;;;5050894;28;20029;-73
2022/03/28 04:31:10;;;;;;;5.03;2.20;;;21.60;47.00;;;;;;5051058;28;20029;-73
2022/03/28 04:33:36;;;;;;;4.85;2.22;;;21.60;47.00;;;;;;5050603;28;20108;-73
2022/03/28 04:36:02;;;;;;;6.50;2.33;;;21.60;47.00;;;;;;5050925;28;20036;-72
2022/03/28 04:38:28;;;;;;;5.20;2.38;;;21.60;47.00;;;;;;5032960;28;20021;-73
2022/03/28 04:40:54;;;;;;;4.30;2.55;;;21.60;47.00;;;;;;5050758;28;20397;-73
2022/03/28 04:43:20;;;;;;;7.25;2.50;;;21.60;47.00;;;;;;5050566;28;20405;-72
2022/03/28 04:45:46;;;;;;;4.55;2.40;;;21.60;46.90;;;;;;5050839;28;20110;-73
2022/03/28 04:48:12;;;;;;;4.57;2.10;;;21.60;46.90;;;;;;5032974;28;20064;-73
2022/03/28 04:50:38;;;;;;;4.72;2.20;;;21.60;46.80;;;;;;5050661;28;20064;-73
2022/03/28 04:53:04;;;;;;;5.43;2.38;;;21.60;46.90;;;;;;5050504;28;20055;-73
2022/03/28 04:55:30;;;;;;;3.58;2.10;;;21.60;46.80;;;;;;5033360;28;20552;-73
2022/03/28 04:57:56;;;;;;;4.85;2.30;;;21.60;47.00;;;;;;5033284;28;20423;-72
2022/03/28 05:00:22;;;;;;;6.53;2.42;;;21.60;46.80;;;;;;5032745;28;20033;-73
2022/03/28 05:02:47;;;;;;;3.92;2.28;;;21.60;46.80;;;;;;5050349;28;20017;-72
2022/03/28 05:05:13;;;;;;;4.88;2.50;;;21.60;46.80;;;;;;5050623;28;20021;-73
2022/03/28 05:07:39;;;;;;;4.88;2.10;;;21.60;46.80;;;;;;5016263;28;20037;-73
2022/03/28 05:10:06;;;;;;;4.45;2.20;;;21.60;46.80;;;;;;5050537;28;20020;-73
2022/03/28 05:12:32;;;;;;;5.47;2.60;;;21.60;47.00;;;;;;5032916;28;20032;-73
2022/03/28 05:14:58;;;;;;;5.30;2.50;;;21.60;46.80;;;;;;5020257;28;20037;-73
2022/03/28 05:17:26;;;;;;;5.45;2.47;;;21.60;46.70;;;;;;5054455;28;20036;-73
2022/03/28 05:19:53;;;;;;;6.03;2.63;;;21.60;46.80;;;;;;5054083;28;20139;-72
2022/03/28 05:22:19;;;;;;;5.07;2.33;;;21.60;46.80;;;;;;5054088;28;20044;-73
2022/03/28 05:24:46;;;;;;;4.95;2.55;;;21.60;46.80;;;;;;5036429;28;20029;-73
2022/03/28 05:27:11;;;;;;;5.25;2.55;;;21.60;46.80;;;;;;5036684;28;20060;-73
2022/03/28 05:29:37;;;;;;;5.32;2.45;;;21.60;46.80;;;;;;5053800;28;20063;-73
2022/03/28 05:32:04;;;;;;;5.55;2.25;;;21.60;46.80;;;;;;5036092;28;20036;-73
2022/03/28 05:34:32;;;;;;;3.97;2.42;;;21.60;46.80;;;;;;5053931;28;20036;-73
2022/03/28 05:37:00;;;;;;;5.43;2.50;;;21.60;46.80;;;;;;5036142;28;20416;-73
2022/03/28 05:39:26;;;;;;;4.70;2.30;;;21.60;46.70;;;;;;5053652;28;20315;-73
2022/03/28 05:41:52;;;;;;;4.53;2.58;;;21.60;46.70;;;;;;5036128;28;20029;-73
2022/03/28 05:44:19;;;;;;;3.88;2.30;;;21.60;46.70;;;;;;5035695;28;20469;-73
2022/03/28 05:46:48;;;;;;;3.67;2.42;;;21.60;46.70;;;;;;5053736;28;20024;-73
2022/03/28 05:49:14;;;;;;;4.47;2.42;;;21.60;46.70;;;;;;5053454;28;20481;-73
2022/03/28 05:51:40;;;;;;;4.38;2.35;;;21.60;46.70;;;;;;5053902;28;20029;-73
2022/03/28 05:54:05;;;;;;;4.65;2.20;;;21.60;46.70;;;;;;5002558;28;20043;-72
2022/03/28 05:56:31;;;;;;;5.30;2.50;;;21.60;46.70;;;;;;5053623;28;20040;-73
2022/03/28 05:58:57;;;;;;;6.10;2.50;;;21.60;46.60;;;;;;5035452;28;20576;-73
2022/03/28 06:01:23;;;;;;;4.55;2.22;;;21.60;46.60;;;;;;5053498;28;20021;-73
2022/03/28 06:03:49;;;;;;;4.95;2.60;;;21.60;46.60;;;;;;5018807;28;20028;-73
2022/03/28 06:06:15;;;;;;;4.75;2.35;;;21.60;46.60;;;;;;5035618;28;20477;-72
2022/03/28 06:08:41;;;;;;;3.95;2.67;;;21.60;46.50;;;;;;5053967;28;20021;-73
2022/03/28 06:11:06;;;;;;;5.90;2.50;;;21.60;46.60;;;;;;5035569;28;20125;-73
2022/03/28 06:13:32;;;;;;;4.93;2.55;;;21.60;46.60;;;;;;5052804;28;20025;-73
2022/03/28 06:15:59;;;;;;;5.05;2.30;;;21.60;46.60;;;;;;5053339;28;20120;-73
2022/03/28 06:18:25;;;;;;;3.53;2.30;;;21.60;46.50;;;;;;5035270;28;20036;-74
2022/03/28 06:20:51;;;;;;;3.30;2.35;;;21.60;46.50;;;;;;5035183;28;20033;-73
2022/03/28 06:23:17;;;;;;;4.72;2.25;;;21.60;46.50;;;;;;5034748;28;20550;-73
2022/03/28 06:25:42;;;;;;;5.07;2.47;;;21.60;46.50;;;;;;5052439;28;20029;-73
2022/03/28 06:28:10;;;;;;;3.70;2.40;;;21.60;46.50;;;;;;5035102;28;20496;-74
2022/03/28 06:30:36;;;;;;;4.18;2.53;;;21.60;46.50;;;;;;5052809;28;20036;-75
2022/03/28 06:33:02;;;;;;;5.03;2.40;;;21.60;46.50;;;;;;5034813;28;20039;-75
2022/03/28 06:35:27;;;;;;;3.33;1.95;;;21.60;46.50;;;;;;5018778;28;20033;-75
2022/03/28 06:37:53;;;;;;;6.97;3.00;;;21.60;46.40;;;;;;5035102;28;20114;-75
2022/03/28 06:40:20;;;;;;;6.90;2.75;;;21.60;46.40;;;;;;5052420;28;20024;-75
2022/03/28 06:42:46;;;;;;;3.80;2.30;;;21.60;46.40;;;;;;5052320;28;20029;-75
2022/03/28 06:45:12;;;;;;;3.97;2.17;;;21.60;46.40;;;;;;5034913;28;20120;-75
2022/03/28 06:47:39;;;;;;;5.03;2.63;;;21.60;46.40;;;;;;5034856;28;20529;-75
2022/03/28 06:50:07;;;;;;;3.58;2.00;;;21.60;46.40;;;;;;5034922;28;20599;-75
2022/03/28 06:52:34;;;;;;;5.25;2.72;;;21.60;46.40;;;;;;5034542;28;20033;-75
2022/03/28 06:54:59;;;;;;;4.60;2.10;;;21.60;46.40;;;;;;5052695;28;20083;-75
2022/03/28 06:57:26;;;;;;;4.90;2.20;;;21.60;46.40;;;;;;5052425;28;20061;-75
2022/03/28 06:59:52;;;;;;;5.40;2.67;;;21.60;46.40;;;;;;5034490;28;20434;-75
2022/03/28 07:02:19;;;;;;;3.72;2.35;;;21.60;46.40;;;;;;5017792;28;20112;-75
2022/03/28 07:04:45;;;;;;;5.32;2.28;;;21.60;46.40;;;;;;5052314;28;20055;-75
2022/03/28 07:07:11;;;;;;;4.38;2.20;;;21.70;46.40;;;;;;5052406;28;20421;-75
2022/03/28 07:09:36;;;;;;;4.43;2.08;;;21.70;46.40;;;;;;5052073;28;20036;-75
2022/03/28 07:12:05;;;;;;;4.15;2.42;;;21.70;46.40;;;;;;5051782;28;20513;-75
2022/03/28 07:14:32;;;;;;;3.40;2.08;;;21.70;46.40;;;;;;5034228;28;20486;-75
2022/03/28 07:16:58;;;;;;;4.20;2.35;;;21.70;46.40;;;;;;5051909;28;20040;-74
2022/03/28 07:19:24;;;;;;;3.70;2.10;;;21.70;46.50;;;;;;5052260;28;20393;-75
2022/03/28 07:21:50;;;;;;;4.03;2.28;;;21.80;46.50;;;;;;5052326;28;20036;-75
2022/03/28 07:24:17;;;;;;;3.72;2.20;;;21.80;46.60;;;;;;5033719;28;20067;-75
2022/03/28 07:26:48;;;;;;;4.63;2.28;;;21.80;46.60;;;;;;5051883;28;20024;-75
2022/03/28 07:29:15;;;;;;;3.70;2.28;;;21.80;46.70;;;;;;5051801;28;20037;-75
2022/03/28 07:31:41;;;;;;;3.92;2.30;;;21.90;46.70;;;;;;5034246;28;20051;-75
2022/03/28 07:36:54;;;;;;;4.47;2.25;;;21.90;46.70;;;;;;5050761;28;20030;-75
2022/03/28 07:39:20;;;;;;;5.83;2.43;;;21.90;46.70;;;;;;5051411;28;20025;-76
2022/03/28 07:41:47;;;;;;;4.05;2.40;;;21.90;46.70;;;;;;5051417;28;20032;-75
2022/03/28 07:44:13;;;;;;;5.75;2.20;;;21.90;46.70;;;;;;5051954;28;20435;-75
2022/03/28 07:46:39;;;;;;;5.55;2.17;;;21.90;46.70;;;;;;5051592;28;20029;-76
2022/03/28 07:49:07;;;;;;;3.92;1.98;;;21.90;46.70;;;;;;5033646;28;20032;-76
2022/03/28 07:51:33;;;;;;;4.75;2.20;;;22.00;46.70;;;;;;5033669;28;20040;-75
2022/03/28 07:53:59;;;;;;;105.53;34.15;;;22.00;46.70;;;;;;5033483;28;20033;-75
2022/03/28 07:56:25;;;;;;;852.08;130.70;;;22.00;46.80;;;;;;5051399;28;20504;-75
2022/03/28 07:58:51;;;;;;;707.60;143.57;;;22.00;46.70;;;;;;5051243;28;20025;-75
2022/03/28 08:01:16;;;;;;;1870.75;420.27;;;22.00;46.70;;;;;;5051244;28;20032;-75
2022/03/28 08:03:42;;;;;;;1999.90;515.95;;;22.10;46.70;;;;;;5050998;28;20456;-75
2022/03/28 08:06:08;;;;;;;17.67;3.08;;;22.10;46.70;;;;;;5033774;28;20031;-76
2022/03/28 08:08:35;;;;;;;32.63;3.15;;;22.10;46.70;;;;;;5000747;28;20072;-75
2022/03/28 08:11:01;;;;;;;42.80;4.03;;;22.10;46.70;;;;;;5016898;28;20448;-75
2022/03/28 08:13:27;;;;;;;40.10;3.35;;;22.10;46.70;;;;;;5050980;28;20029;-75
2022/03/28 08:15:52;;;;;;;44.25;6.90;;;22.10;46.70;;;;;;5000448;28;20464;-75
2022/03/28 08:18:18;;;;;;;15.05;2.78;;;22.10;46.70;;;;;;5017237;28;20389;-75
2022/03/28 08:20:44;;;;;;;51.65;15.75;;;22.10;46.70;;;;;;5000381;28;20087;-75
2022/03/28 08:23:10;;;;;;;37.22;4.25;;;22.20;46.70;;;;;;5016533;28;20021;-75
2022/03/28 08:25:36;;;;;;;86.05;36.05;;;22.20;46.70;;;;;;5033383;28;20436;-76
2022/03/28 08:28:02;;;;;;;3.35;2.35;;;22.20;46.70;;;;;;5033424;28;20033;-76
2022/03/28 08:30:29;;;;;;;26.40;2.83;;;22.20;46.70;;;;;;5016734;28;20032;-76
2022/03/28 08:32:55;;;;;;;37.40;3.28;;;22.20;46.70;;;;;;5016760;28;20111;-76
2022/03/28 08:35:21;;;;;;;6.03;2.80;;;22.20;46.80;;;;;;5032974;28;20116;-76
2022/03/28 08:37:48;;;;;;;21.27;2.95;;;22.20;46.80;;;;;;5017108;28;20094;-76
2022/03/28 08:40:14;;;;;;;3.47;2.40;;;22.20;46.80;;;;;;5032990;28;20036;-75
2022/03/28 08:42:41;;;;;;;8.55;2.50;;;22.20;46.90;;;;;;5050645;28;20078;-75
2022/03/28 08:45:08;;;;;;;3.92;2.13;;;22.20;46.90;;;;;;5016631;28;20029;-76
2022/03/28 08:47:37;;;;;;;3.88;2.30;;;22.20;46.90;;;;;;5017303;28;20033;-75
2022/03/28 08:50:04;;;;;;;15.45;13.88;;;22.20;46.90;;;;;;5054732;28;20055;-75
2022/03/28 08:52:29;;;;;;;26.33;2.95;;;22.20;47.00;;;;;;5054876;28;20039;-76
2022/03/28 08:54:58;;;;;;;31.77;3.10;;;22.20;47.00;;;;;;5054806;28;20544;-76
2022/03/28 08:57:24;;;;;;;18.45;3.13;;;22.20;47.00;;;;;;5054797;28;20111;-76
2022/03/28 08:59:49;;;;;;;10.52;5.18;;;22.20;47.00;;;;;;5054424;28;20565;-76
2022/03/28 09:02:37;;;;;;;3.88;2.13;;;22.20;47.00;;;;;;5054411;28;20053;-76
2022/03/28 09:05:03;;;;;;;225.20;99.70;;;22.20;47.00;;;;;;5054607;28;20025;-76
2022/03/28 09:07:29;;;;;;;36.97;5.95;;;22.20;47.00;;;;;;5054611;28;20044;-76
2022/03/28 09:10:05;;;;;;;31.40;3.20;;;22.20;47.00;;;;;;5054347;28;20195;-75
2022/03/28 09:12:31;;;;;;;3.80;2.45;;;22.20;47.00;;;;;;5036691;28;20040;-76
2022/03/28 09:15:04;;;;;;;4.25;2.00;;;22.20;47.00;;;;;;5054141;28;20025;-76
2022/03/28 09:17:31;;;;;;;7.32;5.28;;;22.30;47.10;;;;;;5036619;28;20033;-76
2022/03/28 09:20:02;;;;;;;30.02;3.25;;;22.30;47.10;;;;;;5020034;28;20493;-75
2022/03/28 09:22:30;;;;;;;41.30;3.72;;;22.30;47.20;;;;;;5019925;28;20032;-76
2022/03/28 09:25:01;;;;;;;16.80;13.57;;;22.30;47.10;;;;;;5020092;28;20043;-76
2022/03/28 09:27:32;;;;;;;41.22;3.60;;;22.30;47.10;;;;;;5054026;28;20033;-76
2022/03/28 09:30:01;;;;;;;274.45;55.25;;;22.30;47.10;;;;;;5054147;28;20060;-76
2022/03/28 09:32:30;;;;;;;28.92;3.17;;;22.30;47.10;;;;;;5035978;28;20326;-76
2022/03/28 09:35:03;;;;;;;3.53;2.20;;;22.30;47.10;;;;;;5019940;28;20090;-76
2022/03/28 09:37:29;;;;;;;44.08;4.00;;;22.30;47.20;;;;;;5053966;28;20306;-76
2022/03/28 09:39:55;;;;;;;54.85;7.40;;;22.30;47.10;;;;;;5053687;28;20064;-76
2022/03/28 09:42:21;;;;;;;30.30;3.95;;;22.30;47.20;;;;;;5053571;28;20064;-75
2022/03/28 09:44:50;;;;;;;11.80;2.47;;;22.30;47.20;;;;;;5035967;28;20047;-76
2022/03/28 09:47:18;;;;;;;3.88;2.30;;;22.30;47.20;;;;;;5035972;28;20033;-75
2022/03/28 09:49:46;;;;;;;34.28;3.28;;;22.30;47.20;;;;;;5019652;28;20032;-74
2022/03/28 09:52:14;;;;;;;43.47;5.22;;;22.30;47.20;;;;;;5053353;28;20060;-75
2022/03/28 09:54:50;;;;;;;24.58;3.47;;;22.30;47.30;;;;;;5035850;28;20032;-76
2022/03/28 09:57:19;;;;;;;27.23;2.90;;;22.30;47.30;;;;;;5035795;28;20037;-76
2022/03/28 09:59:45;;;;;;;199.98;101.82;;;22.30;47.30;;;;;;5018117;28;20028;-76
2022/03/28 10:02:18;;;;;;;39.50;3.65;;;22.30;47.30;;;;;;5035561;28;20029;-75
2022/03/28 10:04:49;;;;;;;4.43;2.35;;;22.30;47.30;;;;;;5035603;28;20494;-76
2022/03/28 10:07:16;;;;;;;39.42;3.58;;;22.30;47.30;;;;;;5053387;28;20017;-75
2022/03/28 10:09:42;;;;;;;99.10;46.33;;;22.30;47.30;;;;;;5035532;28;20030;-75
2022/03/28 10:12:08;;;;;;;45.38;5.88;;;22.30;47.30;;;;;;5035278;28;20029;-75
2022/03/28 10:14:35;;;;;;;21.95;4.93;;;22.30;47.40;;;;;;5053178;28;20078;-75
2022/03/28 10:17:02;;;;;;;4.22;2.70;;;22.30;47.40;;;;;;5035438;28;20025;-76
2022/03/28 10:19:31;;;;;;;46.47;4.22;;;22.30;47.40;;;;;;5052973;28;20032;-76
2022/03/28 10:21:58;;;;;;;41.75;4.88;;;22.30;47.40;;;;;;5018846;28;20398;-75
2022/03/28 10:24:29;;;;;;;18.60;3.22;;;22.30;47.50;;;;;;5053379;28;20029;-76
2022/03/28 10:26:58;;;;;;;3.72;2.50;;;22.30;47.50;;;;;;5035293;28;20025;-76
2022/03/28 10:29:34;;;;;;;7.90;6.83;;;22.30;47.50;;;;;;5053026;28;20033;-76
2022/03/28 10:32:02;;;;;;;44.63;4.03;;;22.30;47.50;;;;;;5034632;28;20504;-76
2022/03/28 10:34:41;;;;;;;41.53;3.40;;;22.30;47.50;;;;;;5052914;28;20055;-76
2022/03/28 10:37:36;;;;;;;4.07;2.50;;;22.30;47.50;;;;;;5035181;28;20041;-76
2022/03/28 10:40:21;;;;;;;34.25;3.45;;;22.30;47.40;;;;;;5044009;23;20064;-75
2022/03/28 10:43:07;;;;;;;44.42;4.70;;;22.30;47.40;;;;;;5016798;28;20037;-75
2022/03/28 10:45:35;;;;;;;38.72;4.78;;;22.30;47.40;;;;;;5052580;28;20445;-75
2022/03/28 10:48:01;;;;;;;36.13;3.10;;;22.30;47.40;;;;;;5035268;28;20025;-76
2022/03/28 10:50:31;;;;;;;17.10;5.53;;;22.30;47.40;;;;;;5035058;28;20029;-76
2022/03/28 10:53:20;;;;;;;23.33;3.25;;;22.30;47.40;;;;;;5052211;28;20108;-75
2022/03/28 10:55:45;;;;;;;862.35;198.93;;;22.30;47.40;;;;;;5052610;28;20531;-73
2022/03/28 10:58:27;;;;;;;39.08;3.45;;;22.30;47.40;;;;;;5052398;28;20028;-75
2022/03/28 11:01:11;;;;;;;3.95;2.50;;;22.30;47.40;;;;;;5052278;28;20048;-75
2022/03/28 11:03:50;;;;;;;34.63;4.10;;;22.20;47.40;;;;;;5034238;28;20025;-75
2022/03/28 11:06:18;;;;;;;3.38;2.10;;;22.20;47.30;;;;;;5052410;28;20099;-76
2022/03/28 11:08:58;;;;;;;4.30;2.55;;;22.20;47.40;;;;;;5052413;28;20442;-76
2022/03/28 11:11:25;;;;;;;;;;;22.20;47.40;;;;;;5052610;28;20029;-76
2022/03/28 11:14:00;;;;;;;39.50;3.45;;;22.20;47.40;;;;;;5033965;28;19913;-75
2022/03/28 11:17:04;;;;;;;40.63;3.20;;;22.20;47.40;;;;;;5052044;28;20116;-75
2022/03/28 11:19:33;;;;;;;18.70;3.97;;;22.20;47.40;;;;;;5050758;28;20029;-75
2022/03/28 11:22:04;;;;;;;43.75;3.67;;;22.20;47.40;;;;;;5051680;28;20021;-75
2022/03/28 11:24:58;;;;;;;47.58;3.95;;;22.20;47.40;;;;;;5051849;28;20142;-76
2022/03/28 11:27:36;;;;;;;43.50;3.92;;;22.20;47.40;;;;;;5051627;28;20079;-76
2022/03/28 11:30:11;;;;;;;125.80;39.63;;;22.20;47.40;;;;;;5051830;28;20479;-75
2022/03/28 11:32:38;;;;;;;3.95;2.95;;;22.20;47.40;;;;;;5051559;28;20032;-75
2022/03/28 11:35:05;;;;;;;39.67;3.28;;;22.20;47.40;;;;;;5051761;28;20037;-75
2022/03/28 11:37:31;;;;;;;26.10;3.70;;;22.20;47.40;;;;;;5051606;28;20473;-75
2022/03/28 11:40:00;;;;;;;42.45;4.60;;;22.20;47.40;;;;;;5051478;28;20040;-75
2022/03/28 11:42:34;;;;;;;4.05;2.00;;;22.20;47.40;;;;;;5051644;28;20666;-75
2022/03/28 11:45:08;;;;;;;33.97;4.22;;;22.20;47.40;;;;;;5034106;28;20033;-75
2022/03/28 11:47:39;;;;;;;29.58;3.67;;;22.20;47.40;;;;;;5051552;28;20647;-76
2022/03/28 11:50:08;;;;;;;8.48;3.83;;;22.20;47.30;;;;;;5017371;28;20466;-75
2022/03/28 11:52:35;;;;;;;10.65;2.72;;;22.20;47.30;;;;;;5033395;28;20028;-76
2022/03/28 11:55:02;;;;;;;40.03;3.47;;;22.20;47.30;;;;;;5051391;28;20025;-76
2022/03/28 12:00:25;;;;;;;3.00;2.17;;;22.20;47.30;;;;;;5051205;28;20032;-75
2022/03/28 12:02:56;;;;;;;8.65;3.00;;;22.20;47.30;;;;;;5016927;28;20136;-75
2022/03/28 12:05:34;;;;;;;54.33;12.80;;;22.20;47.30;;;;;;5051387;28;20074;-76
2022/03/28 12:08:13;;;;;;;26.63;2.92;;;22.20;47.30;;;;;;5033632;28;20386;-75
2022/03/28 12:10:50;;;;;;;4.03;2.40;;;22.20;47.30;;;;;;5051273;28;20039;-74
2022/03/28 12:13:23;;;;;;;39.47;3.25;;;22.20;47.30;;;;;;5050808;28;20071;-76
2022/03/28 12:15:53;;;;;;;32.78;2.88;;;22.20;47.30;;;;;;5033428;28;20032;-77
2022/03/28 12:18:22;;;;;;;23.35;3.00;;;22.20;47.30;;;;;;5051095;28;20120;-75
2022/03/28 12:20:56;;;;;;;17.02;2.55;;;22.20;47.60;;;;;;5051195;28;20033;-75
2022/03/28 12:23:25;;;;;;;21.92;20.08;;;22.10;47.20;;;;;;5050118;28;20052;-75
2022/03/28 12:25:53;;;;;;;30.33;3.03;;;22.10;47.20;;;;;;5033170;28;20021;-75
2022/03/28 12:28:29;;;;;;;3.70;2.10;;;22.10;47.20;;;;;;5051101;28;20029;-75
2022/03/28 12:30:59;;;;;;;42.72;3.25;;;22.10;47.20;;;;;;5033172;28;20444;-76
2022/03/28 12:33:38;;;;;;;19.15;2.72;;;22.10;47.20;;;;;;5032964;28;20032;-75
2022/03/28 12:36:06;;;;;;;32.67;3.15;;;22.10;47.20;;;;;;5050755;28;20025;-75
2022/03/28 12:38:37;;;;;;;15.23;2.78;;;22.10;47.20;;;;;;5050799;28;20083;-75
2022/03/28 12:41:11;;;;;;;7.72;2.95;;;22.10;47.20;;;;;;5050757;28;20029;-75
2022/03/28 12:43:39;;;;;;;3.08;2.13;;;22.10;47.20;;;;;;5050606;28;20017;-75
2022/03/28 12:46:07;;;;;;;44.03;3.58;;;22.10;47.30;;;;;;5051000;28;20025;-75
2022/03/28 12:48:37;;;;;;;43.30;3.80;;;22.10;47.20;;;;;;5032826;28;20033;-76
2022/03/28 12:51:05;;;;;;;35.92;2.85;;;22.10;47.20;;;;;;5050844;28;20040;-75